Time;durP1;ratioP1;P1;durP2;ratioP2;P2;SDS_P1;SDS_P2;PMS_P1;PMS_P2;Temp;Humidity;BMP_temperature;BMP_pressure;BME280_temperature;BME280_humidity;BME280_pressure;Samples;Min_cycle;Max_cycle;Signal;HPM_P1;HPM_P2
2021/12/08 00:01:08;;;;;;;3.95;1.30;;;;;;;18.02;53.82;99135.47;5092178;28;20017;-64
2021/12/08 00:03:34;;;;;;;5.53;1.35;;;;;;;18.00;53.90;99116.38;5091696;28;20032;-65
2021/12/08 00:06:00;;;;;;;4.07;1.00;;;;;;;17.99;54.11;99109.47;5092049;28;20028;-65
2021/12/08 00:08:28;;;;;;;4.82;1.23;;;;;;;17.97;53.80;99102.69;5091951;28;20490;-65
2021/12/08 00:13:25;;;;;;;5.88;1.15;;;;;;;17.95;54.08;99094.97;5092105;28;20471;-64
2021/12/08 00:15:53;;;;;;;5.82;1.33;;;;;;;17.93;53.92;99089.03;5091112;28;20380;-65
2021/12/08 00:18:25;;;;;;;3.78;1.10;;;;;;;17.92;54.00;99088.19;5091451;28;20107;-65
2021/12/08 00:20:54;;;;;;;3.90;1.40;;;;;;;17.91;53.85;99101.53;5091806;28;20043;-64
2021/12/08 00:23:20;;;;;;;5.35;1.30;;;;;;;17.89;54.08;99096.44;5091218;28;20056;-64
2021/12/08 00:25:49;;;;;;;3.13;0.93;;;;;;;17.88;54.01;99099.22;5091833;28;20141;-64
2021/12/08 00:28:15;;;;;;;5.65;1.23;;;;;;;17.87;54.35;99102.84;5091816;28;20052;-64
2021/12/08 00:30:44;;;;;;;3.85;1.20;;;;;;;17.85;53.91;99117.97;5093824;28;20107;-63
2021/12/08 00:33:10;;;;;;;2.80;1.10;;;;;;;17.83;54.14;99123.44;5095731;28;20099;-64
2021/12/08 00:35:36;;;;;;;4.50;1.20;;;;;;;17.83;53.75;99117.31;5095507;28;20115;-64
2021/12/08 00:38:03;;;;;;;4.03;1.13;;;;;;;17.80;53.91;99113.22;5094624;28;20047;-64
2021/12/08 00:40:32;;;;;;;5.13;1.08;;;;;;;17.78;54.16;99102.00;5095545;28;20036;-64
2021/12/08 00:43:00;;;;;;;3.00;0.95;;;;;;;17.74;54.26;99106.78;5095214;28;20024;-64
2021/12/08 00:45:26;;;;;;;3.92;1.30;;;;;;;17.77;53.93;99108.28;5094466;28;20020;-64
2021/12/08 00:47:56;;;;;;;3.55;1.00;;;;;;;17.74;54.23;99101.50;5095006;28;20344;-64
2021/12/08 00:50:25;;;;;;;4.20;0.98;;;;;;;17.75;54.05;99108.44;5095504;28;20024;-64
2021/12/08 00:52:51;;;;;;;4.05;1.50;;;;;;;17.72;54.02;99121.94;5094269;28;20028;-65
2021/12/08 00:55:17;;;;;;;3.78;1.23;;;;;;;17.71;53.93;99115.00;5095108;28;20082;-64
2021/12/08 00:57:45;;;;;;;3.60;1.10;;;;;;;17.69;54.05;99119.63;5095147;28;20481;-64
2021/12/08 01:00:24;;;;;;;5.47;1.10;;;;;;;17.67;54.07;99124.22;5094344;28;20032;-64
2021/12/08 01:02:49;;;;;;;3.63;1.00;;;;;;;17.67;53.91;99142.66;5094762;28;20016;-64
2021/12/08 01:05:20;;;;;;;4.78;1.10;;;;;;;17.66;54.04;99135.75;5094530;28;20028;-64
2021/12/08 01:07:46;;;;;;;4.43;1.20;;;;;;;17.64;54.30;99140.38;5094418;28;20483;-64
2021/12/08 01:10:20;;;;;;;5.93;1.30;;;;;;;17.64;54.07;99152.72;5094597;28;20456;-64
2021/12/08 01:12:46;;;;;;;3.97;1.10;;;;;;;17.62;54.24;99144.97;5093942;28;20035;-65
2021/12/08 01:15:12;;;;;;;5.80;1.15;;;;;;;17.61;54.11;99147.75;5094807;28;20048;-64
2021/12/08 01:17:38;;;;;;;4.20;1.13;;;;;;;17.58;54.06;99155.00;5094780;28;20104;-65
2021/12/08 01:20:06;;;;;;;3.08;1.00;;;;;;;17.58;54.21;99160.28;5093785;28;20027;-65
2021/12/08 01:22:32;;;;;;;4.40;1.10;;;;;;;17.55;54.53;99152.69;5094429;28;20105;-65
2021/12/08 01:24:57;;;;;;;6.30;1.20;;;;;;;17.57;54.31;99147.25;5094399;28;20028;-64
2021/12/08 01:27:22;;;;;;;4.00;1.00;;;;;;;17.54;54.15;99156.31;5094131;28;20123;-64
2021/12/08 01:29:50;;;;;;;4.57;1.10;;;;;;;17.52;53.70;99158.28;5094157;28;20315;-65
2021/12/08 01:32:15;;;;;;;4.15;1.10;;;;;;;17.52;54.42;99160.91;5094328;28;20624;-65
2021/12/08 01:34:44;;;;;;;4.50;0.90;;;;;;;17.50;54.56;99162.06;5093428;28;20050;-65
2021/12/08 01:37:09;;;;;;;3.10;0.90;;;;;;;17.52;54.96;99162.75;5094600;28;20040;-64
2021/12/08 01:39:34;;;;;;;4.22;1.20;;;;;;;17.52;55.26;99158.28;5094247;28;20100;-64
2021/12/08 01:41:59;;;;;;;4.07;1.00;;;;;;;17.54;55.36;99160.75;5093150;28;20036;-65
2021/12/08 01:47:08;;;;;;;3.00;0.90;;;;;;;17.59;55.36;99176.91;5094389;28;20089;-64
2021/12/08 01:49:34;;;;;;;5.30;1.00;;;;;;;17.60;55.56;99175.91;5092586;28;20036;-65
2021/12/08 01:51:59;;;;;;;3.03;1.00;;;;;;;17.62;55.22;99181.84;5093978;28;20284;-65
2021/12/08 01:54:25;;;;;;;4.30;0.80;;;;;;;17.63;55.17;99177.41;5094545;28;20032;-65
2021/12/08 01:56:51;;;;;;;5.25;0.98;;;;;;;17.65;55.22;99173.63;5093295;28;20288;-65
2021/12/08 01:59:17;;;;;;;4.88;1.02;;;;;;;17.66;55.34;99177.09;5093926;28;20020;-64
2021/12/08 02:01:44;;;;;;;3.80;1.20;;;;;;;17.68;54.96;99193.56;5092688;28;20486;-65
2021/12/08 02:04:11;;;;;;;3.25;0.98;;;;;;;17.66;54.84;99191.09;5093702;28;20020;-64
2021/12/08 02:06:45;;;;;;;4.18;0.77;;;;;;;17.68;54.99;99191.75;5093917;28;20093;-64
2021/12/08 02:09:12;;;;;;;;;;;;;;;17.66;55.04;99198.16;5093340;28;20038;-65
2021/12/08 02:11:40;;;;;;;3.40;0.73;;;;;;;17.67;54.86;99205.88;5093792;28;19912;-64
2021/12/08 02:14:05;;;;;;;2.15;0.68;;;;;;;17.67;54.43;99200.63;5093772;28;20597;-63
2021/12/08 02:16:32;;;;;;;3.30;0.70;;;;;;;17.67;54.57;99197.16;5092553;28;20131;-65
2021/12/08 02:18:58;;;;;;;3.92;0.90;;;;;;;17.65;54.81;99199.16;5093355;28;20024;-64
2021/12/08 02:21:28;;;;;;;4.22;0.88;;;;;;;17.66;54.28;99209.53;5093680;28;20032;-64
2021/12/08 02:24:03;;;;;;;2.63;0.80;;;;;;;17.65;54.70;99221.03;5092591;28;20046;-64
2021/12/08 02:26:30;;;;;;;2.35;0.85;;;;;;;17.65;54.55;99220.22;5093601;28;20032;-64
2021/12/08 02:28:56;;;;;;;1.65;0.60;;;;;;;17.64;54.52;99218.56;5093088;28;20016;-63
2021/12/08 02:31:38;;;;;;;4.13;1.00;;;;;;;17.64;54.88;99226.47;5092591;28;20027;-64
2021/12/08 02:50:11;;;;;;;2.90;1.48;;;;;;;17.69;55.12;99227.66;5093268;28;20020;-64
2021/12/08 02:52:37;;;;;;;4.65;1.10;;;;;;;17.70;54.78;99231.09;5091754;28;20035;-64
2021/12/08 02:55:06;;;;;;;2.58;0.82;;;;;;;17.70;54.90;99239.81;5092420;28;20391;-64
2021/12/08 02:57:35;;;;;;;4.47;1.33;;;;;;;17.69;54.71;99230.28;5092887;28;20368;-64
2021/12/08 03:00:04;;;;;;;2.83;0.88;;;;;;;17.71;54.59;99240.66;5091825;28;20085;-64
2021/12/08 03:02:29;;;;;;;2.78;0.70;;;;;;;17.71;54.60;99235.41;5092802;28;20047;-64
2021/12/08 03:04:55;;;;;;;2.95;0.80;;;;;;;17.68;54.59;99238.34;5092019;28;20101;-64
2021/12/08 03:07:20;;;;;;;4.82;1.00;;;;;;;17.69;54.80;99235.56;5092933;28;20136;-64
2021/12/08 03:09:45;;;;;;;3.38;1.00;;;;;;;17.67;54.38;99226.97;5092506;28;20551;-64
2021/12/08 03:12:14;;;;;;;4.32;1.35;;;;;;;17.67;54.56;99236.69;5092026;28;20034;-64
2021/12/08 03:14:40;;;;;;;3.50;1.00;;;;;;;17.66;54.64;99235.88;5092291;28;20074;-64
2021/12/08 03:17:09;;;;;;;2.78;0.80;;;;;;;17.66;54.36;99245.59;5092514;28;20034;-64
2021/12/08 03:19:36;;;;;;;4.00;1.02;;;;;;;17.65;54.30;99246.56;5092186;28;20093;-64
2021/12/08 03:22:10;;;;;;;2.75;0.77;;;;;;;17.64;53.91;99250.19;5092498;28;20024;-64
2021/12/08 03:24:38;;;;;;;3.05;1.10;;;;;;;17.63;54.20;99253.81;5092777;28;20149;-64
2021/12/08 03:27:11;;;;;;;3.92;0.88;;;;;;;17.63;54.56;99259.91;5091432;28;20030;-65
2021/12/08 03:29:53;;;;;;;3.22;0.88;;;;;;;17.63;54.59;99262.53;5092363;28;20031;-64
2021/12/08 03:32:28;;;;;;;3.00;0.80;;;;;;;17.64;54.95;99265.97;5092690;28;20093;-63
2021/12/08 03:34:53;;;;;;;3.08;0.80;;;;;;;17.65;54.52;99268.47;5091626;28;20024;-64
2021/12/08 03:37:32;;;;;;;3.83;1.00;;;;;;;17.66;54.50;99266.66;5092223;28;20540;-63
2021/12/08 03:39:59;;;;;;;4.25;0.90;;;;;;;17.65;54.78;99260.56;5091921;28;20052;-65
2021/12/08 03:42:29;;;;;;;3.88;0.80;;;;;;;17.66;54.75;99262.22;5091882;28;20039;-64
2021/12/08 03:45:03;;;;;;;5.20;1.10;;;;;;;17.66;54.77;99251.69;5092111;28;20066;-64
2021/12/08 03:47:36;;;;;;;4.22;0.80;;;;;;;17.66;54.32;99253.50;5091508;28;20024;-65
2021/12/08 03:50:06;;;;;;;2.47;0.80;;;;;;;17.67;54.64;99253.31;5092158;28;20032;-64
2021/12/08 03:52:31;;;;;;;2.45;0.70;;;;;;;17.65;54.22;99263.19;5092284;28;20289;-64
2021/12/08 03:54:57;;;;;;;3.90;1.08;;;;;;;17.65;54.36;99260.56;5091276;28;20020;-63
2021/12/08 03:57:28;;;;;;;5.00;1.30;;;;;;;17.65;54.23;99265.00;5092132;28;20036;-64
2021/12/08 03:59:53;;;;;;;4.50;1.10;;;;;;;17.65;54.31;99275.53;5091865;28;20165;-64
2021/12/08 04:02:20;;;;;;;4.32;1.02;;;;;;;17.64;54.11;99277.38;5091323;28;20107;-64
2021/12/08 04:04:49;;;;;;;3.28;1.00;;;;;;;17.64;54.45;99277.38;5093067;28;20471;-64
2021/12/08 04:07:16;;;;;;;4.63;1.10;;;;;;;17.65;54.56;99279.00;5096361;28;20131;-64
2021/12/08 04:09:44;;;;;;;3.90;0.90;;;;;;;17.66;54.60;99285.13;5095153;28;20030;-64
2021/12/08 04:12:15;;;;;;;5.22;0.85;;;;;;;17.66;54.87;99277.22;5096111;28;20032;-64
2021/12/08 04:14:46;;;;;;;4.45;0.85;;;;;;;17.68;54.78;99280.50;5095587;28;20016;-64
2021/12/08 04:17:30;;;;;;;3.22;0.88;;;;;;;17.68;54.50;99277.88;5094165;28;20122;-65
2021/12/08 04:19:58;;;;;;;3.55;0.77;;;;;;;17.68;54.34;99280.50;5095769;28;20028;-65
2021/12/08 04:22:28;;;;;;;3.13;0.82;;;;;;;17.68;54.43;99288.41;5095177;28;20143;-64
2021/12/08 04:24:56;;;;;;;3.33;0.90;;;;;;;17.68;54.15;99283.13;5095584;28;20020;-65
2021/12/08 04:27:28;;;;;;;5.55;1.20;;;;;;;17.68;53.97;99297.13;5095869;28;20028;-65
2021/12/08 04:29:54;;;;;;;3.60;0.88;;;;;;;17.68;54.02;99296.31;5094564;28;20383;-64
2021/12/08 04:32:23;;;;;;;3.70;1.00;;;;;;;17.67;54.15;99311.28;5095574;28;20032;-64
2021/12/08 04:34:52;;;;;;;4.43;1.10;;;;;;;17.64;54.11;99302.88;5095464;28;20024;-64
2021/12/08 04:37:25;;;;;;;3.80;0.95;;;;;;;17.66;53.70;99306.19;5094767;28;20074;-64
2021/12/08 04:43:00;;;;;;;3.75;0.80;;;;;;;17.64;53.75;99301.06;5095512;28;20027;-64
2021/12/08 04:45:25;;;;;;;3.28;0.73;;;;;;;17.65;54.04;99299.25;5093932;28;20467;-64
2021/12/08 04:51:10;;;;;;;5.63;1.20;;;;;;;17.64;54.08;99287.06;5094995;28;20078;-64
2021/12/08 05:07:32;;;;;;;4.18;1.15;;;;;;;17.64;53.75;99316.88;5094881;28;20031;-64
2021/12/08 05:10:05;;;;;;;3.63;1.10;;;;;;;17.63;54.17;99323.13;5094806;28;20028;-64
2021/12/08 05:12:34;;;;;;;4.75;0.88;;;;;;;17.65;54.00;99322.97;5094356;28;20043;-64
2021/12/08 05:15:07;;;;;;;4.22;1.20;;;;;;;17.65;54.43;99323.78;5094351;28;20048;-64
2021/12/08 05:17:38;;;;;;;2.70;0.73;;;;;;;17.66;54.35;99324.63;5093801;28;20098;-64
2021/12/08 05:20:31;;;;;;;5.00;1.10;;;;;;;17.67;54.31;99323.63;5093822;28;20030;-65
2021/12/08 05:23:03;;;;;;;4.32;1.00;;;;;;;17.66;54.12;99328.09;5094252;28;20040;-65
2021/12/08 05:25:32;;;;;;;4.47;0.80;;;;;;;17.64;54.37;99324.78;5094655;28;20134;-65
2021/12/08 05:28:00;;;;;;;5.38;1.15;;;;;;;17.67;54.14;99323.63;5094174;28;20395;-65
2021/12/08 05:30:40;;;;;;;4.13;0.95;;;;;;;17.67;53.94;99328.91;5094639;28;20054;-65
2021/12/08 05:33:07;;;;;;;4.30;1.00;;;;;;;17.67;53.90;99331.53;5094250;28;20020;-63
2021/12/08 05:35:55;;;;;;;3.72;1.02;;;;;;;17.67;53.65;99334.16;5094463;28;20029;-64
2021/12/08 05:38:21;;;;;;;6.45;1.08;;;;;;;17.65;53.87;99336.13;5094428;28;20028;-64
2021/12/08 05:41:00;;;;;;;5.20;1.15;;;;;;;17.66;53.88;99345.72;5093189;28;20085;-64
2021/12/08 05:43:32;;;;;;;5.47;0.85;;;;;;;17.66;54.21;99358.88;5094463;28;20043;-64
2021/12/08 05:45:58;;;;;;;5.38;0.93;;;;;;;17.66;54.23;99359.69;5094038;28;20024;-64
2021/12/08 05:48:27;;;;;;;5.50;1.30;;;;;;;17.66;54.43;99353.59;5093460;28;20387;-64
2021/12/08 05:51:00;;;;;;;9.30;1.40;;;;;;;17.67;54.35;99363.97;5093976;28;20110;-65
2021/12/08 05:53:26;;;;;;;3.30;1.00;;;;;;;17.67;54.19;99355.25;5094408;28;20084;-64
2021/12/08 05:55:52;;;;;;;5.97;1.40;;;;;;;17.67;54.27;99352.59;5093364;28;20173;-64
2021/12/08 05:58:20;;;;;;;4.82;1.10;;;;;;;17.67;54.15;99350.78;5094159;28;20028;-64
2021/12/08 06:01:07;;;;;;;3.28;0.80;;;;;;;17.67;54.04;99353.44;5093036;28;20032;-64
2021/12/08 06:03:34;;;;;;;5.03;0.98;;;;;;;17.67;54.30;99363.97;5093870;28;20118;-64
2021/12/08 06:06:01;;;;;;;5.40;0.90;;;;;;;17.66;54.88;99364.97;5093906;28;20028;-64
2021/12/08 06:08:28;;;;;;;7.07;1.15;;;;;;;17.71;54.68;99375.03;5092733;28;20032;-65
2021/12/08 06:10:55;;;;;;;7.50;1.55;;;;;;;17.73;54.54;99373.06;5093767;28;20487;-64
2021/12/08 06:13:20;;;;;;;4.85;1.25;;;;;;;17.74;54.28;99375.53;5093935;28;20020;-65
2021/12/08 06:15:47;;;;;;;4.45;1.20;;;;;;;17.76;54.34;99376.19;5092650;28;20131;-71
2021/12/08 06:18:19;;;;;;;4.25;1.08;;;;;;;17.77;54.05;99374.41;5093539;28;20040;-64
2021/12/08 06:20:45;;;;;;;4.18;1.02;;;;;;;17.80;53.98;99374.09;5093392;28;20153;-63
2021/12/08 06:23:13;;;;;;;5.13;1.08;;;;;;;17.82;54.05;99385.28;5092910;28;20099;-63
2021/12/08 06:25:38;;;;;;;3.70;1.08;;;;;;;17.85;54.10;99389.41;5093551;28;20027;-65
2021/12/08 06:28:06;;;;;;;5.90;1.20;;;;;;;17.87;54.20;99387.47;5093376;28;20455;-65
2021/12/08 06:30:33;;;;;;;4.03;1.13;;;;;;;17.87;53.79;99388.28;5092621;28;20032;-65
2021/12/08 06:32:59;;;;;;;4.47;1.13;;;;;;;17.88;53.73;99389.13;5093427;28;20116;-65
2021/12/08 06:35:36;;;;;;;4.22;1.05;;;;;;;17.90;53.81;99390.63;5093238;28;20115;-65
2021/12/08 06:38:03;;;;;;;5.50;1.20;;;;;;;17.90;53.87;99388.00;5092303;28;20031;-65
2021/12/08 06:40:35;;;;;;;5.70;1.20;;;;;;;17.93;53.75;99394.78;5093123;28;20562;-65
2021/12/08 06:43:04;;;;;;;6.78;1.10;;;;;;;17.93;53.80;99395.59;5092047;28;20048;-65
2021/12/08 06:45:33;;;;;;;3.25;0.95;;;;;;;17.94;53.45;99384.06;5093128;28;20375;-65
2021/12/08 06:48:02;;;;;;;2.88;0.85;;;;;;;17.95;53.50;99375.16;5092623;28;20488;-65
2021/12/08 06:50:33;;;;;;;5.28;1.67;;;;;;;17.97;53.33;99384.72;5092094;28;20360;-64
2021/12/08 06:53:00;;;;;;;5.65;1.20;;;;;;;17.98;53.18;99400.38;5092608;28;20024;-64
2021/12/08 06:55:39;;;;;;;2.75;1.05;;;;;;;17.98;52.95;99397.75;5092972;28;20114;-65
2021/12/08 06:58:14;;;;;;;7.03;0.98;;;;;;;18.00;53.35;99403.69;5092253;28;20039;-64
2021/12/08 07:06:43;;;;;;;5.03;1.15;;;;;;;18.03;53.36;99406.00;5051199;28;20105;-64
2021/12/08 07:09:15;;;;;;;4.07;0.98;;;;;;;18.03;52.71;99413.09;5092534;28;20479;-63
2021/12/08 07:11:42;;;;;;;4.10;1.05;;;;;;;18.05;53.21;99424.28;5091620;28;20077;-64
2021/12/08 07:14:08;;;;;;;3.05;0.93;;;;;;;18.05;52.40;99427.75;5092477;28;20082;-63
2021/12/08 07:16:41;;;;;;;4.85;1.30;;;;;;;18.05;52.72;99421.66;5092134;28;20429;-64
2021/12/08 07:19:13;;;;;;;5.18;1.05;;;;;;;18.05;52.78;99427.75;5091580;28;20464;-64
2021/12/08 07:21:43;;;;;;;4.72;1.20;;;;;;;18.08;52.62;99437.16;5092678;28;20359;-64
2021/12/08 07:24:22;;;;;;;6.82;1.52;;;;;;;18.07;52.79;99444.25;5092621;28;20065;-64
2021/12/08 07:26:50;;;;;;;3.75;0.88;;;;;;;18.07;52.74;99454.81;5091287;28;20020;-63
2021/12/08 07:29:20;;;;;;;3.50;1.02;;;;;;;18.06;52.46;99458.41;5092593;28;20059;-64
2021/12/08 07:31:52;;;;;;;3.92;1.10;;;;;;;18.08;52.62;99461.72;5091982;28;20122;-64
2021/12/08 07:34:19;;;;;;;2.95;0.98;;;;;;;18.09;52.59;99454.66;5091717;28;20036;-63
2021/12/08 07:36:52;;;;;;;4.97;1.20;;;;;;;18.10;52.20;99466.81;5091882;28;20043;-63
2021/12/08 07:39:23;;;;;;;6.78;1.10;;;;;;;18.11;52.48;99484.31;5090921;28;20028;-63
2021/12/08 07:41:54;;;;;;;4.82;1.15;;;;;;;18.11;52.26;99482.50;5092108;28;20028;-63
2021/12/08 07:44:24;;;;;;;4.05;1.10;;;;;;;18.11;52.40;99484.31;5092298;28;20391;-64
2021/12/08 07:46:59;;;;;;;5.38;1.13;;;;;;;18.11;52.33;99485.13;5091206;28;20051;-63
2021/12/08 07:49:38;;;;;;;4.95;1.20;;;;;;;18.12;52.26;99492.06;5092420;28;20024;-63
2021/12/08 07:52:06;;;;;;;4.22;1.23;;;;;;;18.13;52.54;99487.59;5091881;28;20056;-64
2021/12/08 07:54:33;;;;;;;4.90;1.30;;;;;;;18.11;50.60;99493.03;5091309;28;20484;-64
2021/12/08 07:57:01;;;;;;;7.78;1.38;;;;;;;18.11;51.20;99498.31;5091760;28;20481;-65
2021/12/08 07:59:27;;;;;;;3.90;1.13;;;;;;;18.12;51.46;99492.06;5091986;28;20032;-64
2021/12/08 08:01:57;;;;;;;4.70;1.30;;;;;;;18.15;51.69;99479.53;5091303;28;20028;-66
2021/12/08 08:04:25;;;;;;;5.25;0.85;;;;;;;18.17;51.30;99482.88;5091996;28;20027;-64
2021/12/08 08:06:54;;;;;;;5.40;1.17;;;;;;;18.17;51.17;99486.31;5091930;28;20036;-67
2021/12/08 08:09:27;;;;;;;4.50;1.00;;;;;;;18.20;51.17;99495.69;5091267;28;20519;-65
2021/12/08 08:12:14;;;;;;;5.75;1.13;;;;;;;18.20;51.09;99487.78;5091792;28;20390;-66
2021/12/08 08:14:43;;;;;;;4.97;1.48;;;;;;;18.22;51.32;99502.47;5090859;28;20133;-68
2021/12/08 08:17:18;;;;;;;4.65;1.27;;;;;;;18.25;51.27;99507.44;5091997;28;20028;-64
2021/12/08 08:19:49;;;;;;;6.00;1.27;;;;;;;18.25;51.32;99504.81;5091780;28;20024;-65
2021/12/08 08:22:20;;;;;;;4.93;1.10;;;;;;;18.26;51.40;99495.06;5091421;28;20086;-63
2021/12/08 08:24:47;;;;;;;4.63;1.23;;;;;;;18.28;51.56;99501.03;5091907;28;20035;-66
2021/12/08 08:27:14;;;;;;;4.55;1.15;;;;;;;18.28;51.84;99512.41;5091954;28;20050;-64
2021/12/08 08:29:40;;;;;;;4.47;0.90;;;;;;;18.29;51.45;99514.06;5090793;28;20058;-64
2021/12/08 08:32:19;;;;;;;4.75;1.25;;;;;;;18.30;51.13;99502.50;5092064;28;20516;-64
2021/12/08 08:34:46;;;;;;;4.70;1.20;;;;;;;18.34;51.08;99504.84;5091560;28;20434;-63
2021/12/08 08:37:14;;;;;;;4.13;0.98;;;;;;;18.36;51.01;99485.25;5091035;28;20036;-64
2021/12/08 08:39:58;;;;;;;4.03;1.20;;;;;;;18.38;51.39;99479.81;5091716;28;20020;-63
2021/12/08 08:42:36;;;;;;;5.47;1.30;;;;;;;18.39;51.44;99473.53;5092079;28;20503;-63
2021/12/08 08:45:12;;;;;;;4.45;1.17;;;;;;;18.40;51.58;99464.66;5091387;28;20132;-64
2021/12/08 08:47:45;;;;;;;3.35;0.98;;;;;;;18.40;51.92;99468.09;5091870;28;20040;-64
2021/12/08 08:50:23;;;;;;;4.55;1.25;;;;;;;18.42;51.88;99467.94;5090990;28;20030;-64
2021/12/08 08:52:51;;;;;;;5.00;1.23;;;;;;;18.40;51.87;99460.19;5094092;28;20028;-64
2021/12/08 08:55:28;;;;;;;3.92;1.02;;;;;;;18.43;51.54;99465.16;5095276;28;20064;-64
2021/12/08 08:57:54;;;;;;;3.90;1.10;;;;;;;18.43;51.67;99472.25;5094001;28;20506;-64
2021/12/08 09:00:33;;;;;;;4.68;1.50;;;;;;;18.45;51.38;99486.09;5095062;28;20437;-64
2021/12/08 09:03:03;;;;;;;5.80;1.20;;;;;;;18.45;51.75;99494.00;5094531;28;20340;-64
2021/12/08 09:05:57;;;;;;;4.22;0.98;;;;;;;18.45;51.13;99483.44;5094420;28;20087;-65
2021/12/08 09:08:27;;;;;;;5.83;1.03;;;;;;;18.45;50.83;99488.72;5092109;28;20115;-64
2021/12/08 09:11:00;;;;;;;4.10;1.00;;;;;;;18.43;51.15;99488.88;5094012;28;20280;-63
2021/12/08 09:13:38;;;;;;;5.90;1.23;;;;;;;18.48;51.65;99497.16;5098752;28;20483;-71
2021/12/08 09:16:09;;;;;;;5.53;1.00;;;;;;;18.56;51.58;99493.72;5095048;28;20105;-65
2021/12/08 09:18:46;;;;;;;6.10;1.40;;;;;;;18.55;51.62;99491.22;5094500;28;20178;-66
2021/12/08 09:21:36;;;;;;;8.75;1.40;;;;;;;18.53;51.60;99498.47;5095571;28;20055;-66
2021/12/08 09:24:09;;;;;;;4.53;1.17;;;;;;;18.50;51.56;99497.00;5093708;28;20063;-64
2021/12/08 09:26:41;;;;;;;4.53;1.00;;;;;;;18.55;51.63;99507.91;5097534;28;20498;-62
2021/12/08 09:29:12;;;;;;;5.53;1.33;;;;;;;18.66;51.75;99517.34;5100777;28;20040;-62
2021/12/08 09:31:56;;;;;;;5.75;1.30;;;;;;;18.65;51.34;99520.97;5100920;28;20031;-63
2021/12/08 09:34:31;;;;;;;7.57;1.45;;;;;;;18.64;51.54;99521.94;5101874;28;20031;-64
2021/12/08 09:37:06;;;;;;;6.60;1.20;;;;;;;18.60;51.08;99534.63;5097514;28;20082;-63
2021/12/08 09:39:45;;;;;;;3.85;1.20;;;;;;;18.55;51.11;99520.25;5078068;28;20024;-64
2021/12/08 09:42:27;;;;;;;5.25;1.17;;;;;;;18.54;51.32;99535.25;5095927;28;20076;-66
2021/12/08 09:45:06;;;;;;;7.63;1.35;;;;;;;18.50;51.24;99528.66;5094250;28;20078;-64
2021/12/08 09:47:32;;;;;;;3.25;0.90;;;;;;;18.49;51.62;99519.09;5093920;28;20028;-62
2021/12/08 09:49:59;;;;;;;4.78;1.38;;;;;;;18.46;50.68;99522.88;5093780;28;20043;-63
2021/12/08 09:52:27;;;;;;;7.50;1.33;;;;;;;18.47;51.02;99510.53;5093661;28;20490;-63
2021/12/08 09:54:56;;;;;;;6.63;1.23;;;;;;;18.42;51.44;99505.72;5092489;28;20020;-63
2021/12/08 09:57:21;;;;;;;3.90;0.95;;;;;;;18.45;51.63;99512.47;5093764;28;20090;-63
2021/12/08 09:59:47;;;;;;;5.18;1.25;;;;;;;18.43;51.38;99509.16;5093073;28;20032;-62
2021/12/08 10:02:37;;;;;;;5.40;1.02;;;;;;;18.43;51.52;99502.06;5093203;28;20028;-64
2021/12/08 10:05:10;;;;;;;4.28;1.02;;;;;;;18.43;51.14;99509.16;5093496;28;20380;-63
2021/12/08 10:07:37;;;;;;;3.97;1.02;;;;;;;18.43;51.61;99504.72;5093262;28;20032;-63
2021/12/08 10:10:05;;;;;;;5.50;1.20;;;;;;;18.44;51.64;99500.28;5093560;28;20032;-65
2021/12/08 10:12:34;;;;;;;7.10;1.00;;;;;;;18.45;52.01;99500.13;5097245;28;20043;-65
2021/12/08 10:14:59;;;;;;;4.40;1.33;;;;;;;18.58;51.49;99493.56;5095277;28;20442;-65
2021/12/08 10:17:25;;;;;;;5.25;1.25;;;;;;;18.72;51.50;99490.28;5094082;28;20116;-67
2021/12/08 10:20:17;;;;;;;5.47;1.10;;;;;;;18.85;51.67;99488.06;5093341;28;20127;-66
2021/12/08 10:22:46;;;;;;;4.47;1.00;;;;;;;18.93;51.26;99481.97;5092829;28;20031;-65
2021/12/08 10:25:16;;;;;;;3.40;0.90;;;;;;;18.98;50.11;99473.56;5093840;28;20032;-63
2021/12/08 10:28:06;;;;;;;4.40;1.00;;;;;;;18.93;50.45;99474.06;5093114;28;20035;-64
2021/12/08 10:30:53;;;;;;;4.13;1.00;;;;;;;18.86;50.07;99475.69;5093143;28;20024;-63
2021/12/08 10:34:01;;;;;;;5.18;1.10;;;;;;;18.78;50.20;99468.53;5092902;28;20041;-63
2021/12/08 10:36:55;;;;;;;3.90;0.93;;;;;;;18.71;50.60;99459.63;5092271;28;20107;-63
2021/12/08 10:39:47;;;;;;;6.17;1.17;;;;;;;18.64;50.41;99462.09;5093189;28;20050;-63
2021/12/08 10:42:22;;;;;;;5.28;0.90;;;;;;;18.61;50.61;99451.84;5092444;28;20107;-63
2021/12/08 10:44:56;;;;;;;4.75;1.00;;;;;;;18.59;50.48;99453.00;5092946;28;20043;-63
2021/12/08 10:47:24;;;;;;;4.68;0.88;;;;;;;18.57;50.81;99450.53;5093058;28;20089;-64
2021/12/08 10:55:14;;;;;;;4.97;1.20;;;;;;;18.52;50.70;99455.47;5093975;28;20123;-63
2021/12/08 10:57:40;;;;;;;4.43;1.00;;;;;;;18.60;50.39;99450.19;5098835;28;20039;-67
2021/12/08 11:00:25;;;;;;;4.88;1.10;;;;;;;18.75;50.21;99460.13;5094604;28;20024;-65
2021/12/08 11:02:54;;;;;;;3.30;1.02;;;;;;;18.87;50.26;99461.50;5093125;28;20036;-62
2021/12/08 11:05:25;;;;;;;4.82;1.05;;;;;;;18.94;48.92;99469.59;5092246;28;20066;-66
2021/12/08 11:08:11;;;;;;;5.13;1.00;;;;;;;19.02;49.71;99490.72;5092616;28;20024;-65
2021/12/08 11:10:54;;;;;;;6.20;0.93;;;;;;;19.09;48.48;99491.72;5092576;28;20066;-63
2021/12/08 11:13:24;;;;;;;4.85;1.10;;;;;;;19.14;48.69;99492.06;5092881;28;20024;-65
2021/12/08 11:16:00;;;;;;;3.88;1.23;;;;;;;19.20;48.76;99503.75;5092206;28;20052;-65
2021/12/08 11:18:30;;;;;;;4.75;1.00;;;;;;;19.24;48.91;99504.28;5095722;28;20063;-62
2021/12/08 11:20:59;;;;;;;5.78;1.00;;;;;;;19.25;48.64;99504.13;5098056;28;20020;-61
2021/12/08 11:23:42;;;;;;;5.18;0.90;;;;;;;19.28;48.76;99513.50;5094521;28;20031;-64
2021/12/08 11:26:10;;;;;;;5.60;1.02;;;;;;;19.30;48.88;99509.72;5091819;28;20032;-63
2021/12/08 11:28:36;;;;;;;7.93;2.00;;;;;;;19.31;48.86;99518.47;5092508;28;20188;-62
2021/12/08 11:31:09;;;;;;;6.60;1.13;;;;;;;19.30;48.31;99515.00;5092419;28;20074;-62
2021/12/08 11:33:41;;;;;;;5.47;1.20;;;;;;;19.29;48.79;99523.91;5092025;28;20028;-61
2021/12/08 11:36:10;;;;;;;4.68;1.10;;;;;;;19.28;48.27;99532.84;5092467;28;20028;-67
2021/12/08 11:38:40;;;;;;;6.55;1.40;;;;;;;19.21;48.65;99535.28;5091668;28;20066;-64
2021/12/08 11:41:21;;;;;;;5.05;0.80;;;;;;;19.13;48.94;99548.50;5092256;28;20544;-64
2021/12/08 11:43:54;;;;;;;3.88;0.98;;;;;;;19.04;49.00;99549.47;5092210;28;20028;-64
2021/12/08 11:46:19;;;;;;;4.50;0.88;;;;;;;18.97;49.05;99554.56;5089414;28;20038;-64
2021/12/08 11:49:03;;;;;;;4.95;1.48;;;;;;;18.92;49.40;99546.31;5092015;28;20024;-64
2021/12/08 11:51:31;;;;;;;9.23;1.30;;;;;;;18.87;49.78;99550.41;5092253;28;20028;-65
2021/12/08 11:53:59;;;;;;;6.95;1.20;;;;;;;18.83;49.60;99555.16;5091253;28;20024;-65
2021/12/08 11:56:38;;;;;;;6.60;1.48;;;;;;;18.80;49.18;99556.31;5092568;28;20036;-64
2021/12/08 11:59:07;;;;;;;3.38;1.00;;;;;;;18.86;49.56;99565.44;5092093;28;20115;-66
2021/12/08 12:01:32;;;;;;;3.65;1.02;;;;;;;18.84;49.13;99565.59;5091318;28;20024;-66
2021/12/08 12:03:57;;;;;;;5.18;1.08;;;;;;;18.80;49.55;99566.03;5091832;28;20391;-65
2021/12/08 12:06:27;;;;;;;4.65;1.38;;;;;;;18.76;49.60;99570.81;5091836;28;20391;-65
2021/12/08 12:08:55;;;;;;;3.83;0.88;;;;;;;18.73;49.74;99579.03;5091642;28;20360;-65
2021/12/08 12:11:24;;;;;;;3.78;0.88;;;;;;;18.68;49.16;99586.63;5092240;28;20020;-64
2021/12/08 12:13:50;;;;;;;6.05;0.95;;;;;;;18.65;50.12;99587.75;5091008;28;20437;-62
2021/12/08 12:16:15;;;;;;;7.20;1.50;;;;;;;18.64;50.04;99593.19;5091621;28;20044;-62
2021/12/08 12:18:41;;;;;;;3.70;1.10;;;;;;;18.62;49.72;99603.09;5091469;28;20066;-63
2021/12/08 12:21:22;;;;;;;5.28;1.33;;;;;;;18.58;49.96;99607.84;5091368;28;20024;-61
2021/12/08 12:24:21;;;;;;;5.57;1.00;;;;;;;18.56;49.93;99616.91;5091494;28;20471;-63
2021/12/08 12:26:59;;;;;;;5.25;1.10;;;;;;;18.55;49.50;99616.09;5094724;28;20044;-63
2021/12/08 12:29:40;;;;;;;5.20;1.23;;;;;;;18.51;49.53;99611.28;5095018;28;20537;-63
2021/12/08 12:32:17;;;;;;;5.50;1.63;;;;;;;18.48;49.68;99617.69;5095728;28;20066;-63
2021/12/08 12:34:43;;;;;;;3.03;0.88;;;;;;;18.46;47.38;99636.31;5094729;28;20589;-64
2021/12/08 12:37:38;;;;;;;4.50;1.08;;;;;;;18.37;47.66;99628.50;5095642;28;20123;-64
2021/12/08 12:40:16;;;;;;;4.90;1.00;;;;;;;18.34;48.16;99631.44;5095599;28;20085;-65
2021/12/08 12:42:48;;;;;;;4.30;0.95;;;;;;;18.33;49.19;99630.63;5094623;28;20387;-62
2021/12/08 12:45:15;;;;;;;5.22;0.80;;;;;;;18.33;49.63;99638.53;5095761;28;20024;-63